Time;durP1;ratioP1;P1;durP2;ratioP2;P2;SDS_P1;SDS_P2;PMS_P1;PMS_P2;Temp;Humidity;BMP_temperature;BMP_pressure;BME280_temperature;BME280_humidity;BME280_pressure;Samples;Min_cycle;Max_cycle;Signal;HPM_P1;HPM_P2
2022/12/08 00:02:21;;;;;;;35.37;25.20;;;;;;;;;;5080194;28;20226;-71
2022/12/08 00:10:16;;;;;;;41.33;30.97;;;;;;;;;;5098530;28;20176;-70
2022/12/08 00:12:42;;;;;;;43.60;33.87;;;;;;;;;;5097917;28;20346;-72
2022/12/08 00:15:08;;;;;;;31.77;27.03;;;;;;;;;;5097911;28;20177;-72
2022/12/08 00:17:34;;;;;;;36.70;26.57;;;;;;;;;;5079864;28;20262;-73
2022/12/08 00:19:59;;;;;;;35.03;28.53;;;;;;;;;;5079888;28;20264;-72
2022/12/08 00:22:28;;;;;;;35.93;27.60;;;;;;;;;;5079313;28;20180;-72
2022/12/08 00:24:53;;;;;;;36.43;26.03;;;;;;;;;;5098017;28;20270;-72
2022/12/08 00:27:19;;;;;;;32.53;25.90;;;;;;;;;;5097426;28;20177;-74
2022/12/08 00:29:45;;;;;;;32.07;25.63;;;;;;;;;;5079213;28;20181;-73
2022/12/08 00:32:12;;;;;;;33.27;25.33;;;;;;;;;;5079228;28;20177;-72
2022/12/08 00:34:38;;;;;;;33.73;25.97;;;;;;;;;;5078748;28;20262;-73
2022/12/08 00:37:03;;;;;;;30.53;24.90;;;;;;;;;;5097115;28;20403;-72
2022/12/08 00:39:30;;;;;;;32.50;24.67;;;;;;;;;;5097163;28;20243;-72
2022/12/08 00:42:10;;;;;;;30.97;24.73;;;;;;;;;;5078602;28;20505;-73
2022/12/08 00:44:36;;;;;;;30.37;24.33;;;;;;;;;;5079771;28;20200;-72
2022/12/08 00:47:02;;;;;;;32.53;25.17;;;;;;;;;;5098262;28;20399;-72
2022/12/08 00:49:28;;;;;;;30.53;24.17;;;;;;;;;;5097602;28;20209;-72
2022/12/08 00:51:54;;;;;;;33.80;24.40;;;;;;;;;;5078506;28;20189;-73
2022/12/08 00:54:21;;;;;;;31.70;25.03;;;;;;;;;;5096647;28;20229;-71
2022/12/08 00:56:48;;;;;;;43.33;34.03;;;;;;;;;;5078603;28;20188;-72
2022/12/08 00:59:14;;;;;;;30.20;25.20;;;;;;;;;;5078497;28;20201;-72
2022/12/08 01:01:40;;;;;;;31.13;25.13;;;;;;;;;;5097198;28;20185;-72
2022/12/08 01:04:08;;;;;;;29.33;25.60;;;;;;;;;;5078464;28;20205;-72
2022/12/08 01:06:34;;;;;;;29.50;26.13;;;;;;;;;;5097172;28;20181;-73
2022/12/08 01:09:01;;;;;;;35.97;26.90;;;;;;;;;;5078930;28;20671;-73
2022/12/08 01:11:27;;;;;;;33.37;27.70;;;;;;;;;;5096644;28;20276;-73
2022/12/08 01:13:53;;;;;;;33.73;27.97;;;;;;;;;;5078160;28;20672;-73
2022/12/08 01:16:20;;;;;;;34.03;27.57;;;;;;;;;;5097021;28;20245;-71
2022/12/08 01:18:46;;;;;;;38.37;28.87;;;;;;;;;;5077895;28;20222;-72
2022/12/08 01:21:12;;;;;;;35.27;30.17;;;;;;;;;;5096562;28;20565;-72
2022/12/08 01:23:38;;;;;;;37.87;30.87;;;;;;;;;;5095557;28;20221;-73
2022/12/08 01:26:05;;;;;;;40.50;31.90;;;;;;;;;;5078119;28;20173;-71
2022/12/08 01:28:31;;;;;;;45.53;34.57;;;;;;;;;;5096323;28;20629;-72
2022/12/08 01:30:58;;;;;;;41.47;31.93;;;;;;;;;;5078257;28;20437;-73
2022/12/08 01:33:24;;;;;;;46.83;33.33;;;;;;;;;;5096301;28;20223;-71
2022/12/08 01:35:50;;;;;;;48.27;35.50;;;;;;;;;;5078437;28;20196;-72
2022/12/08 01:38:16;;;;;;;47.67;37.77;;;;;;;;;;5077969;28;20201;-70
2022/12/08 01:40:42;;;;;;;43.70;35.03;;;;;;;;;;5096546;28;20259;-72
2022/12/08 01:43:18;;;;;;;45.97;37.73;;;;;;;;;;5096265;28;20232;-74
2022/12/08 01:45:44;;;;;;;52.27;41.03;;;;;;;;;;5077918;28;20188;-74
2022/12/08 01:48:14;;;;;;;58.60;42.30;;;;;;;;;;5096184;28;20629;-74
2022/12/08 01:50:41;;;;;;;53.90;41.73;;;;;;;;;;5078678;28;20173;-73
2022/12/08 01:53:09;;;;;;;58.77;43.00;;;;;;;;;;5077711;28;20248;-74
2022/12/08 01:55:41;;;;;;;62.20;43.23;;;;;;;;;;5095701;28;20173;-74
2022/12/08 01:58:20;;;;;;;57.73;42.07;;;;;;;;;;5078061;28;20680;-73
2022/12/08 02:00:46;;;;;;;56.43;42.37;;;;;;;;;;5096147;28;20509;-72
2022/12/08 02:03:15;;;;;;;59.20;41.37;;;;;;;;;;5077943;28;20204;-73
2022/12/08 02:05:41;;;;;;;57.10;42.47;;;;;;;;;;5077998;28;20179;-72
2022/12/08 02:08:09;;;;;;;57.23;41.07;;;;;;;;;;5095818;28;20185;-72
2022/12/08 02:10:37;;;;;;;60.23;43.50;;;;;;;;;;5096086;28;20188;-72
2022/12/08 02:13:04;;;;;;;58.53;45.20;;;;;;;;;;5078009;28;20275;-73
2022/12/08 02:15:48;;;;;;;60.93;40.87;;;;;;;;;;5095973;28;20200;-73
2022/12/08 02:18:33;;;;;;;59.83;43.30;;;;;;;;;;5078185;28;20196;-73
2022/12/08 02:21:02;;;;;;;58.13;43.43;;;;;;;;;;5077752;28;20587;-74
2022/12/08 02:23:34;;;;;;;63.70;42.27;;;;;;;;;;5078149;28;20248;-74
2022/12/08 02:26:15;;;;;;;58.83;40.47;;;;;;;;;;5095908;28;20605;-73
2022/12/08 02:28:44;;;;;;;57.73;42.43;;;;;;;;;;5095982;28;20621;-73
2022/12/08 02:31:28;;;;;;;55.43;41.53;;;;;;;;;;5077544;28;20182;-74
2022/12/08 02:34:00;;;;;;;55.90;39.97;;;;;;;;;;5095737;28;20222;-73
2022/12/08 02:36:31;;;;;;;59.00;42.63;;;;;;;;;;5097315;28;20185;-72
2022/12/08 02:39:20;;;;;;;54.03;39.33;;;;;;;;;;5100439;28;20247;-73
2022/12/08 02:41:50;;;;;;;54.90;41.53;;;;;;;;;;5100466;28;20181;-74
2022/12/08 02:44:16;;;;;;;56.67;42.23;;;;;;;;;;5100528;28;20223;-73
2022/12/08 02:46:53;;;;;;;56.80;41.33;;;;;;;;;;5100168;28;20210;-74
2022/12/08 02:49:19;;;;;;;53.27;40.10;;;;;;;;;;5100848;28;20710;-73
2022/12/08 02:51:45;;;;;;;49.93;38.37;;;;;;;;;;5099793;28;20177;-74
2022/12/08 02:54:12;;;;;;;52.43;38.73;;;;;;;;;;5099843;28;20217;-74
2022/12/08 02:56:59;;;;;;;50.70;38.80;;;;;;;;;;5099333;28;20264;-74
2022/12/08 02:59:46;;;;;;;53.93;39.53;;;;;;;;;;5081409;28;20196;-71
2022/12/08 03:02:30;;;;;;;52.77;39.53;;;;;;;;;;5081937;28;20181;-70
2022/12/08 03:05:15;;;;;;;52.43;38.87;;;;;;;;;;5099383;28;20216;-73
2022/12/08 03:07:47;;;;;;;54.50;37.90;;;;;;;;;;5080832;28;20548;-73
2022/12/08 03:10:18;;;;;;;52.43;39.23;;;;;;;;;;5100014;28;20511;-69
2022/12/08 03:12:47;;;;;;;51.60;38.87;;;;;;;;;;5099267;28;20165;-73
2022/12/08 03:15:15;;;;;;;49.50;38.13;;;;;;;;;;5098855;28;20539;-72
2022/12/08 03:17:45;;;;;;;48.10;37.20;;;;;;;;;;5080696;28;20203;-73
2022/12/08 03:20:13;;;;;;;48.90;35.70;;;;;;;;;;5098699;28;20205;-71
2022/12/08 03:22:40;;;;;;;46.40;35.93;;;;;;;;;;5098612;28;20180;-71
2022/12/08 03:25:07;;;;;;;47.83;35.57;;;;;;;;;;5099645;28;20173;-69
2022/12/08 03:27:33;;;;;;;44.97;34.63;;;;;;;;;;5080327;28;20208;-71
2022/12/08 03:30:00;;;;;;;44.47;35.53;;;;;;;;;;5080700;28;20192;-72
2022/12/08 03:32:35;;;;;;;46.17;33.67;;;;;;;;;;5080621;28;20188;-72
2022/12/08 03:35:02;;;;;;;42.27;34.20;;;;;;;;;;5080663;28;20199;-72
2022/12/08 03:37:29;;;;;;;46.33;35.07;;;;;;;;;;5080775;28;20548;-73
2022/12/08 03:39:55;;;;;;;43.77;33.17;;;;;;;;;;5098457;28;20170;-72
2022/12/08 03:42:21;;;;;;;42.17;32.70;;;;;;;;;;5080390;28;20180;-72
2022/12/08 03:44:47;;;;;;;42.47;33.70;;;;;;;;;;5097995;28;20193;-73
2022/12/08 03:47:13;;;;;;;42.57;33.77;;;;;;;;;;5097636;28;20199;-72
2022/12/08 03:49:39;;;;;;;44.33;33.30;;;;;;;;;;5080179;28;20636;-73
2022/12/08 03:52:05;;;;;;;44.17;33.17;;;;;;;;;;5098298;28;20173;-73
2022/12/08 03:54:31;;;;;;;42.23;32.63;;;;;;;;;;5097860;28;20276;-72
2022/12/08 03:56:57;;;;;;;43.23;30.87;;;;;;;;;;5080135;28;20236;-72
2022/12/08 03:59:23;;;;;;;41.53;30.37;;;;;;;;;;5097913;28;20275;-72
2022/12/08 04:01:49;;;;;;;40.13;32.50;;;;;;;;;;5098614;28;20656;-73
2022/12/08 04:04:15;;;;;;;39.13;31.83;;;;;;;;;;5098247;28;20268;-71
2022/12/08 04:06:41;;;;;;;36.63;29.53;;;;;;;;;;5098178;28;20520;-72
2022/12/08 04:09:07;;;;;;;39.27;30.93;;;;;;;;;;5079858;28;20185;-72
2022/12/08 04:11:33;;;;;;;40.80;33.10;;;;;;;;;;5079604;28;20272;-73
2022/12/08 04:13:59;;;;;;;41.40;31.63;;;;;;;;;;5098118;28;20714;-73
2022/12/08 04:16:26;;;;;;;36.70;30.13;;;;;;;;;;5079424;28;20544;-73
2022/12/08 04:18:52;;;;;;;39.73;32.40;;;;;;;;;;5097884;28;20204;-73
2022/12/08 04:21:18;;;;;;;36.60;30.60;;;;;;;;;;5080054;28;20226;-72
2022/12/08 04:23:45;;;;;;;39.10;31.37;;;;;;;;;;5097562;28;20196;-74
2022/12/08 04:26:11;;;;;;;35.97;30.60;;;;;;;;;;5079161;28;20262;-74
2022/12/08 04:28:37;;;;;;;36.73;31.43;;;;;;;;;;5080457;28;20244;-74
2022/12/08 04:31:03;;;;;;;40.57;31.50;;;;;;;;;;5097401;28;20662;-75
2022/12/08 04:33:29;;;;;;;36.27;30.73;;;;;;;;;;5097248;28;20628;-73
2022/12/08 04:35:55;;;;;;;37.67;30.57;;;;;;;;;;5097428;28;20181;-73
2022/12/08 04:38:21;;;;;;;35.90;28.97;;;;;;;;;;5079626;28;20644;-72
2022/12/08 04:40:47;;;;;;;33.50;29.13;;;;;;;;;;5097204;28;20222;-72
2022/12/08 04:43:13;;;;;;;36.43;29.50;;;;;;;;;;5096905;28;20598;-71
2022/12/08 04:45:40;;;;;;;33.83;28.93;;;;;;;;;;5096927;28;20256;-74
2022/12/08 04:48:06;;;;;;;32.77;28.10;;;;;;;;;;5097009;28;20177;-73
2022/12/08 04:50:32;;;;;;;33.77;29.27;;;;;;;;;;5078818;28;20526;-72
2022/12/08 04:52:58;;;;;;;34.90;28.13;;;;;;;;;;5097504;28;20197;-74
2022/12/08 04:55:24;;;;;;;33.23;28.03;;;;;;;;;;5096973;28;20206;-75
2022/12/08 04:57:50;;;;;;;34.03;27.47;;;;;;;;;;5078931;28;20197;-73
2022/12/08 05:00:16;;;;;;;31.07;26.60;;;;;;;;;;5096389;28;20199;-73
2022/12/08 05:02:42;;;;;;;31.30;25.33;;;;;;;;;;5078548;28;20181;-72
2022/12/08 05:05:09;;;;;;;32.70;27.50;;;;;;;;;;5096541;28;20185;-73
2022/12/08 05:07:35;;;;;;;31.20;27.40;;;;;;;;;;5077931;28;20181;-72
2022/12/08 05:10:00;;;;;;;34.30;27.53;;;;;;;;;;5078090;28;20203;-73
2022/12/08 05:12:26;;;;;;;32.70;26.70;;;;;;;;;;5096919;28;20568;-75
2022/12/08 05:14:52;;;;;;;31.13;27.67;;;;;;;;;;5097509;28;20224;-74
2022/12/08 05:17:18;;;;;;;28.80;25.60;;;;;;;;;;5097978;28;20183;-73
2022/12/08 05:19:44;;;;;;;30.87;27.40;;;;;;;;;;5078652;28;20177;-73
2022/12/08 05:22:10;;;;;;;29.03;25.83;;;;;;;;;;5096875;28;20230;-73
2022/12/08 05:24:37;;;;;;;31.67;26.00;;;;;;;;;;5096426;28;20228;-72
2022/12/08 05:27:03;;;;;;;29.03;24.67;;;;;;;;;;5096492;28;20201;-73
2022/12/08 05:29:29;;;;;;;31.70;24.87;;;;;;;;;;5078513;28;20419;-73
2022/12/08 05:31:55;;;;;;;28.27;24.43;;;;;;;;;;5096274;28;20181;-72
2022/12/08 05:34:21;;;;;;;30.43;24.27;;;;;;;;;;5096222;28;20231;-73
2022/12/08 05:36:47;;;;;;;28.10;24.57;;;;;;;;;;5078327;28;20200;-74
2022/12/08 05:39:13;;;;;;;28.37;23.83;;;;;;;;;;5078295;28;20261;-74
2022/12/08 05:41:39;;;;;;;31.10;25.30;;;;;;;;;;5079734;28;20520;-74
2022/12/08 05:44:05;;;;;;;29.47;24.50;;;;;;;;;;5095913;28;20201;-73
2022/12/08 05:46:31;;;;;;;31.00;25.43;;;;;;;;;;5095739;28;20173;-74
2022/12/08 05:48:59;;;;;;;31.00;25.57;;;;;;;;;;5077879;28;20319;-72
2022/12/08 05:51:25;;;;;;;29.43;25.30;;;;;;;;;;5096046;28;20193;-73
2022/12/08 05:53:51;;;;;;;31.17;27.50;;;;;;;;;;5078464;28;20201;-74
2022/12/08 05:56:18;;;;;;;35.73;28.27;;;;;;;;;;5077953;28;20226;-73
2022/12/08 05:58:44;;;;;;;34.70;26.70;;;;;;;;;;5096023;28;20197;-73
2022/12/08 06:01:23;;;;;;;34.57;26.17;;;;;;;;;;5096086;28;20177;-71
2022/12/08 06:03:49;;;;;;;35.97;27.03;;;;;;;;;;5077850;28;20208;-74
2022/12/08 06:06:15;;;;;;;36.23;27.73;;;;;;;;;;5096391;28;20226;-74
2022/12/08 06:08:41;;;;;;;37.67;27.93;;;;;;;;;;5096438;28;20636;-71
2022/12/08 06:11:07;;;;;;;43.87;30.73;;;;;;;;;;5081240;28;20181;-73
2022/12/08 06:13:33;;;;;;;36.33;30.33;;;;;;;;;;5083518;28;20285;-76
2022/12/08 06:16:03;;;;;;;40.93;31.07;;;;;;;;;;5104894;28;20747;-76
2022/12/08 06:18:29;;;;;;;45.00;31.90;;;;;;;;;;5103960;28;20201;-77
2022/12/08 06:21:06;;;;;;;37.80;28.47;;;;;;;;;;5085173;28;20615;-75
2022/12/08 06:23:32;;;;;;;42.60;31.03;;;;;;;;;;5084165;28;20627;-75
2022/12/08 06:26:02;;;;;;;38.37;27.10;;;;;;;;;;5101994;28;20222;-75
2022/12/08 06:28:28;;;;;;;42.63;31.97;;;;;;;;;;5101540;28;20230;-75
2022/12/08 06:30:54;;;;;;;41.03;30.00;;;;;;;;;;5083654;28;20178;-76
2022/12/08 06:33:20;;;;;;;41.03;30.03;;;;;;;;;;5082157;28;20216;-76
2022/12/08 06:35:46;;;;;;;44.17;30.80;;;;;;;;;;5100536;28;20181;-76
2022/12/08 06:38:12;;;;;;;43.23;31.97;;;;;;;;;;5099992;28;20266;-74
2022/12/08 06:40:38;;;;;;;39.33;28.83;;;;;;;;;;5081794;28;20176;-76
2022/12/08 06:43:04;;;;;;;42.33;30.20;;;;;;;;;;5081621;28;20321;-77
2022/12/08 06:45:30;;;;;;;38.90;28.67;;;;;;;;;;5100480;28;20215;-75
2022/12/08 06:47:56;;;;;;;39.07;28.40;;;;;;;;;;5099990;28;20580;-76
2022/12/08 06:50:22;;;;;;;37.70;28.00;;;;;;;;;;5099324;28;20556;-75
2022/12/08 06:52:48;;;;;;;43.77;30.10;;;;;;;;;;5099522;28;20181;-76
2022/12/08 06:55:14;;;;;;;35.73;27.63;;;;;;;;;;5081351;28;20555;-76
2022/12/08 06:57:40;;;;;;;38.40;29.13;;;;;;;;;;5081605;28;20191;-76
2022/12/08 07:00:06;;;;;;;36.37;28.27;;;;;;;;;;5099751;28;20184;-75
2022/12/08 07:02:32;;;;;;;38.10;28.90;;;;;;;;;;5081300;28;20649;-75
2022/12/08 07:04:58;;;;;;;39.13;30.87;;;;;;;;;;5097316;23;20278;-68
2022/12/08 07:07:24;;;;;;;39.27;28.73;;;;;;;;;;5095325;28;20704;-67
2022/12/08 07:09:50;;;;;;;39.40;28.37;;;;;;;;;;5097115;28;20260;-68
2022/12/08 07:12:16;;;;;;;37.57;26.83;;;;;;;;;;5095315;28;20205;-67
2022/12/08 07:14:42;;;;;;;34.57;26.90;;;;;;;;;;5097413;28;20189;-67
2022/12/08 07:17:08;;;;;;;35.33;25.73;;;;;;;;;;5095711;28;20177;-67
2022/12/08 07:19:34;;;;;;;37.53;26.57;;;;;;;;;;5097997;28;20258;-68
2022/12/08 07:22:00;;;;;;;33.40;26.07;;;;;;;;;;5094546;28;20212;-67
2022/12/08 07:24:26;;;;;;;37.67;26.67;;;;;;;;;;5095108;28;20204;-67
2022/12/08 07:26:52;;;;;;;33.27;25.77;;;;;;;;;;5097016;28;20181;-67
2022/12/08 07:29:18;;;;;;;31.03;24.43;;;;;;;;;;5095112;28;20189;-68
2022/12/08 07:31:44;;;;;;;29.53;24.33;;;;;;;;;;5094974;28;20569;-68
2022/12/08 07:34:11;;;;;;;34.20;27.03;;;;;;;;;;5096524;28;20206;-68
2022/12/08 07:36:37;;;;;;;28.03;23.87;;;;;;;;;;5095373;28;20185;-67
2022/12/08 07:39:03;;;;;;;26.40;23.43;;;;;;;;;;5095110;28;20209;-68
2022/12/08 07:41:29;;;;;;;25.50;21.23;;;;;;;;;;5095451;28;20177;-68
2022/12/08 07:43:56;;;;;;;24.30;21.10;;;;;;;;;;5095041;28;20188;-68
2022/12/08 07:46:23;;;;;;;22.33;19.30;;;;;;;;;;5096198;28;20698;-68
2022/12/08 07:48:49;;;;;;;27.30;20.30;;;;;;;;;;5094967;28;20283;-68
2022/12/08 07:51:16;;;;;;;27.23;19.70;;;;;;;;;;5096949;28;20577;-68
2022/12/08 07:53:42;;;;;;;22.40;20.00;;;;;;;;;;5096379;28;20195;-68
2022/12/08 07:56:09;;;;;;;23.83;20.07;;;;;;;;;;5095275;28;20579;-68
2022/12/08 07:58:35;;;;;;;26.10;21.33;;;;;;;;;;5098454;28;20201;-70
2022/12/08 08:01:01;;;;;;;26.60;21.27;;;;;;;;;;5097286;28;20223;-68
2022/12/08 08:03:27;;;;;;;25.53;22.30;;;;;;;;;;5094357;28;20185;-68
2022/12/08 08:05:53;;;;;;;26.33;21.33;;;;;;;;;;5095348;28;20231;-68
2022/12/08 08:08:19;;;;;;;28.13;21.80;;;;;;;;;;5094398;28;20197;-68
2022/12/08 08:10:46;;;;;;;25.23;21.97;;;;;;;;;;5095500;28;20211;-68
2022/12/08 08:13:12;;;;;;;27.07;22.40;;;;;;;;;;5094168;28;20181;-69
2022/12/08 08:15:38;;;;;;;27.53;20.17;;;;;;;;;;5094288;28;20801;-68
2022/12/08 08:18:04;;;;;;;27.70;21.83;;;;;;;;;;5095584;28;20954;-68
2022/12/08 08:20:30;;;;;;;26.50;21.10;;;;;;;;;;5094165;28;20287;-69
2022/12/08 08:22:56;;;;;;;23.93;20.07;;;;;;;;;;5095919;28;20211;-68
2022/12/08 08:25:22;;;;;;;26.03;20.13;;;;;;;;;;5094337;28;20723;-68
2022/12/08 08:27:48;;;;;;;22.87;18.77;;;;;;;;;;5095522;28;20718;-68
2022/12/08 08:30:15;;;;;;;23.70;19.13;;;;;;;;;;5095424;28;20188;-69
2022/12/08 08:32:41;;;;;;;26.50;18.87;;;;;;;;;;5094424;28;20287;-69
2022/12/08 08:35:07;;;;;;;21.57;18.60;;;;;;;;;;5094068;28;20443;-69
2022/12/08 08:37:33;;;;;;;27.53;20.27;;;;;;;;;;5093912;28;20710;-69
2022/12/08 08:39:59;;;;;;;22.77;19.40;;;;;;;;;;5094212;28;20222;-68
2022/12/08 08:42:25;;;;;;;23.47;20.03;;;;;;;;;;5094162;28;20177;-69
2022/12/08 08:44:51;;;;;;;25.67;20.13;;;;;;;;;;5095464;28;20199;-69
2022/12/08 08:47:17;;;;;;;23.60;20.13;;;;;;;;;;5093919;28;20173;-69
2022/12/08 08:49:43;;;;;;;27.37;20.07;;;;;;;;;;5093751;28;20267;-70
2022/12/08 08:52:09;;;;;;;26.90;20.67;;;;;;;;;;5095002;28;20303;-69
2022/12/08 08:54:35;;;;;;;28.30;21.00;;;;;;;;;;5095886;28;20680;-69
2022/12/08 08:57:01;;;;;;;25.07;21.40;;;;;;;;;;5094330;28;20584;-68
2022/12/08 08:59:27;;;;;;;29.50;24.33;;;;;;;;;;5093728;28;20209;-70
2022/12/08 09:01:54;;;;;;;30.73;24.77;;;;;;;;;;5094536;28;20177;-69
2022/12/08 09:04:20;;;;;;;34.87;26.87;;;;;;;;;;5094619;28;20275;-70
2022/12/08 09:06:47;;;;;;;36.00;27.30;;;;;;;;;;5094844;28;20535;-69
2022/12/08 09:09:13;;;;;;;32.77;28.80;;;;;;;;;;5094629;28;20173;-69
2022/12/08 09:11:39;;;;;;;40.90;30.37;;;;;;;;;;5095070;28;20199;-69
2022/12/08 09:14:05;;;;;;;41.10;27.47;;;;;;;;;;5094296;28;20552;-69
2022/12/08 09:16:31;;;;;;;43.93;33.17;;;;;;;;;;5095903;28;20192;-69
2022/12/08 09:18:57;;;;;;;41.80;35.03;;;;;;;;;;5094672;28;20197;-69
2022/12/08 09:21:24;;;;;;;42.23;33.80;;;;;;;;;;5093089;28;20677;-69
2022/12/08 09:23:55;;;;;;;50.70;38.13;;;;;;;;;;5093194;28;20181;-68
2022/12/08 09:26:22;;;;;;;67.67;46.90;;;;;;;;;;5093526;28;20681;-69
2022/12/08 09:28:48;;;;;;;72.50;48.67;;;;;;;;;;5094603;28;20180;-69
2022/12/08 09:31:15;;;;;;;54.97;41.07;;;;;;;;;;5094402;28;20673;-69
2022/12/08 09:33:41;;;;;;;63.57;46.87;;;;;;;;;;5092863;28;20210;-69
2022/12/08 09:36:08;;;;;;;66.47;47.10;;;;;;;;;;5092661;28;20219;-69
2022/12/08 09:38:34;;;;;;;46.63;36.63;;;;;;;;;;5092690;28;20236;-69
2022/12/08 09:41:01;;;;;;;52.97;38.27;;;;;;;;;;5092429;28;20181;-69
2022/12/08 09:43:45;;;;;;;50.47;38.13;;;;;;;;;;5094025;28;20179;-69
2022/12/08 09:46:14;;;;;;;50.10;38.23;;;;;;;;;;5094865;28;20246;-69
2022/12/08 09:48:42;;;;;;;53.90;36.27;;;;;;;;;;5095028;28;20204;-69
2022/12/08 09:51:09;;;;;;;44.47;33.80;;;;;;;;;;5093918;28;20211;-69
2022/12/08 09:53:41;;;;;;;44.17;34.27;;;;;;;;;;5094357;28;20208;-69
2022/12/08 09:56:16;;;;;;;41.10;34.13;;;;;;;;;;5094987;28;20201;-69
2022/12/08 09:58:43;;;;;;;40.17;31.60;;;;;;;;;;5094873;28;20290;-69
2022/12/08 10:01:10;;;;;;;40.13;34.13;;;;;;;;;;5092811;28;20571;-69
2022/12/08 10:03:36;;;;;;;42.23;33.00;;;;;;;;;;5094148;28;20230;-69
2022/12/08 10:06:20;;;;;;;35.43;31.23;;;;;;;;;;5093549;28;20217;-69
2022/12/08 10:08:46;;;;;;;37.13;30.70;;;;;;;;;;5092332;28;20181;-69
2022/12/08 10:11:20;;;;;;;41.43;33.17;;;;;;;;;;5094084;28;20187;-69
2022/12/08 10:14:03;;;;;;;38.40;30.23;;;;;;;;;;5094142;28;20255;-69
2022/12/08 10:16:41;;;;;;;52.57;41.33;;;;;;;;;;5092247;28;20196;-69
2022/12/08 10:19:15;;;;;;;45.73;38.47;;;;;;;;;;5092203;28;20745;-69
2022/12/08 10:21:41;;;;;;;39.57;35.17;;;;;;;;;;5093629;28;20708;-68
2022/12/08 10:24:28;;;;;;;43.33;34.40;;;;;;;;;;5093498;28;20169;-69
2022/12/08 10:26:54;;;;;;;41.17;32.77;;;;;;;;;;5086205;28;20197;-69
2022/12/08 10:29:20;;;;;;;43.67;34.80;;;;;;;;;;5092442;28;20184;-69
2022/12/08 10:31:46;;;;;;;43.33;37.23;;;;;;;;;;5093635;28;20177;-69
2022/12/08 10:34:17;;;;;;;44.50;36.67;;;;;;;;;;5092131;28;20220;-69
2022/12/08 10:36:54;;;;;;;46.53;35.47;;;;;;;;;;5092091;28;20218;-69
2022/12/08 10:39:31;;;;;;;46.87;36.27;;;;;;;;;;5092199;28;20212;-69
2022/12/08 10:42:01;;;;;;;48.10;34.87;;;;;;;;;;5093754;28;20710;-69
2022/12/08 10:44:27;;;;;;;43.60;35.83;;;;;;;;;;5094609;28;20189;-69
2022/12/08 10:46:53;;;;;;;47.90;38.77;;;;;;;;;;5092549;28;20262;-69
2022/12/08 10:49:31;;;;;;;50.23;37.00;;;;;;;;;;5095804;28;20177;-69
2022/12/08 10:51:57;;;;;;;46.73;37.77;;;;;;;;;;5098422;28;20188;-70
2022/12/08 10:54:25;;;;;;;52.43;37.53;;;;;;;;;;5109485;28;20187;-69
2022/12/08 10:56:56;;;;;;;54.00;39.73;;;;;;;;;;5110513;28;20177;-70
2022/12/08 10:59:24;;;;;;;52.90;39.80;;;;;;;;;;5112185;28;20201;-70
2022/12/08 11:01:51;;;;;;;48.40;38.43;;;;;;;;;;5096567;28;20180;-69
2022/12/08 11:04:18;;;;;;;49.00;37.30;;;;;;;;;;5096230;28;20543;-69
2022/12/08 11:06:45;;;;;;;63.40;39.23;;;;;;;;;;5097710;28;20679;-69
2022/12/08 11:09:17;;;;;;;53.40;40.30;;;;;;;;;;5098410;28;20177;-70
2022/12/08 11:11:46;;;;;;;54.63;40.60;;;;;;;;;;5099238;28;20177;-70
2022/12/08 11:14:32;;;;;;;49.13;39.00;;;;;;;;;;5097498;28;20191;-69
2022/12/08 11:17:06;;;;;;;55.33;41.23;;;;;;;;;;5097558;28;20169;-69
2022/12/08 11:19:36;;;;;;;53.93;42.50;;;;;;;;;;5097643;28;20291;-68
2022/12/08 11:22:02;;;;;;;55.43;40.27;;;;;;;;;;5096892;28;20173;-69
2022/12/08 11:24:29;;;;;;;53.07;40.63;;;;;;;;;;5108544;28;20253;-69
2022/12/08 11:26:59;;;;;;;53.93;39.30;;;;;;;;;;5117752;28;20157;-70
2022/12/08 11:29:26;;;;;;;52.47;40.83;;;;;;;;;;5117516;28;20204;-67
2022/12/08 11:31:54;;;;;;;55.80;41.53;;;;;;;;;;5109676;28;20411;-68
2022/12/08 11:34:39;;;;;;;60.33;41.63;;;;;;;;;;5112826;28;20177;-70
2022/12/08 11:37:06;;;;;;;55.37;42.53;;;;;;;;;;5112405;28;20204;-68
2022/12/08 11:39:34;;;;;;;58.60;41.83;;;;;;;;;;5107071;28;20204;-68
2022/12/08 11:42:02;;;;;;;58.90;45.03;;;;;;;;;;5098777;28;20189;-67
2022/12/08 11:44:31;;;;;;;60.20;44.73;;;;;;;;;;5098241;28;20193;-69
2022/12/08 11:47:13;;;;;;;61.67;47.90;;;;;;;;;;5097586;28;20773;-68
2022/12/08 11:49:40;;;;;;;44.63;35.70;;;;;;;;;;5097347;28;20248;-68
2022/12/08 11:52:25;;;;;;;36.60;31.80;;;;;;;;;;5096272;28;20250;-68
2022/12/08 11:55:00;;;;;;;29.83;25.83;;;;;;;;;;5096035;28;20228;-69
2022/12/08 11:57:28;;;;;;;25.10;22.33;;;;;;;;;;5097444;28;20181;-68
2022/12/08 11:59:55;;;;;;;22.03;19.37;;;;;;;;;;5097912;28;20258;-68
2022/12/08 12:02:23;;;;;;;21.03;18.77;;;;;;;;;;5097447;28;20561;-68
2022/12/08 12:04:58;;;;;;;22.07;19.90;;;;;;;;;;5095786;28;20637;-68
2022/12/08 12:07:42;;;;;;;19.10;17.10;;;;;;;;;;5095420;28;20280;-68
2022/12/08 12:10:08;;;;;;;21.63;19.40;;;;;;;;;;5097331;28;20261;-69
2022/12/08 12:12:48;;;;;;;19.40;17.40;;;;;;;;;;5097838;28;20209;-68
2022/12/08 12:15:30;;;;;;;21.57;19.27;;;;;;;;;;5096687;28;20212;-68
2022/12/08 12:18:01;;;;;;;20.30;18.10;;;;;;;;;;5097374;28;20200;-68
2022/12/08 12:20:46;;;;;;;21.87;19.57;;;;;;;;;;5094272;28;20210;-69
2022/12/08 12:23:29;;;;;;;23.13;20.30;;;;;;;;;;5095883;28;20411;-68
2022/12/08 12:25:58;;;;;;;23.40;20.97;;;;;;;;;;5095601;28;20327;-68
2022/12/08 12:28:25;;;;;;;23.37;20.83;;;;;;;;;;5095520;28;20188;-67
2022/12/08 12:31:01;;;;;;;22.17;19.87;;;;;;;;;;5095618;28;20215;-68
2022/12/08 12:33:29;;;;;;;23.13;20.63;;;;;;;;;;5095750;28;20184;-68
2022/12/08 12:35:56;;;;;;;23.10;20.60;;;;;;;;;;5097218;28;20205;-68
2022/12/08 12:41:07;;;;;;;23.97;21.37;;;;;;;;;;5095862;28;20168;-68
2022/12/08 12:43:34;;;;;;;23.53;21.03;;;;;;;;;;5095742;28;20177;-68
2022/12/08 12:46:19;;;;;;;26.50;22.57;;;;;;;;;;5095691;28;20193;-68
2022/12/08 12:48:45;;;;;;;23.97;21.40;;;;;;;;;;5095782;28;20659;-68
2022/12/08 12:51:34;;;;;;;25.53;22.70;;;;;;;;;;5098216;28;20177;-69
2022/12/08 12:54:19;;;;;;;25.30;22.60;;;;;;;;;;5095517;28;20714;-68
2022/12/08 12:56:55;;;;;;;25.53;22.27;;;;;;;;;;5106402;28;20180;-68
2022/12/08 12:59:22;;;;;;;29.67;24.17;;;;;;;;;;5099816;28;20208;-69
2022/12/08 13:01:53;;;;;;;25.63;22.60;;;;;;;;;;5101052;28;20173;-69
2022/12/08 13:04:20;;;;;;;28.47;23.87;;;;;;;;;;5101432;28;20181;-69
2022/12/08 13:06:49;;;;;;;27.20;23.87;;;;;;;;;;5099721;28;20167;-69
2022/12/08 13:09:36;;;;;;;27.17;22.70;;;;;;;;;;5100404;28;20520;-68
2022/12/08 13:12:09;;;;;;;26.17;22.43;;;;;;;;;;5100890;28;20185;-69
2022/12/08 13:14:36;;;;;;;28.47;25.17;;;;;;;;;;5113384;22;20228;-72
2022/12/08 13:17:04;;;;;;;36.97;29.17;;;;;;;;;;5094759;28;20706;-71
2022/12/08 13:19:31;;;;;;;27.47;24.03;;;;;;;;;;5094545;28;20291;-72
2022/12/08 13:21:58;;;;;;;27.00;24.13;;;;;;;;;;5095399;28;20637;-72
2022/12/08 13:24:23;;;;;;;58.93;45.10;;;;;;;;;;5076037;28;20205;-72
2022/12/08 13:27:12;;;;;;;30.30;24.73;;;;;;;;;;5094372;28;20524;-71
2022/12/08 13:29:38;;;;;;;31.90;27.13;;;;;;;;;;5094295;28;20192;-69
2022/12/08 13:32:08;;;;;;;27.13;23.90;;;;;;;;;;5094578;28;20542;-71
2022/12/08 13:34:34;;;;;;;28.10;25.00;;;;;;;;;;5076490;28;20193;-72
2022/12/08 13:37:13;;;;;;;49.50;40.47;;;;;;;;;;5094515;28;20692;-69
2022/12/08 13:39:38;;;;;;;65.87;51.80;;;;;;;;;;5095181;28;20669;-69
2022/12/08 13:42:12;;;;;;;31.30;25.77;;;;;;;;;;5095089;28;20703;-71
2022/12/08 13:44:41;;;;;;;31.47;25.70;;;;;;;;;;5076781;28;20205;-71
2022/12/08 13:47:10;;;;;;;36.33;27.63;;;;;;;;;;5076636;28;20204;-69
2022/12/08 13:49:41;;;;;;;31.93;27.57;;;;;;;;;;5094528;28;20226;-69
2022/12/08 13:52:13;;;;;;;45.40;33.77;;;;;;;;;;5094579;28;20161;-71
2022/12/08 13:54:40;;;;;;;37.20;26.10;;;;;;;;;;5076323;28;20208;-69
2022/12/08 13:57:07;;;;;;;31.27;25.93;;;;;;;;;;5076091;28;20641;-69
2022/12/08 13:59:34;;;;;;;30.37;24.77;;;;;;;;;;5076086;28;20313;-69
2022/12/08 14:02:10;;;;;;;41.90;29.37;;;;;;;;;;5094213;28;20169;-71
2022/12/08 14:04:36;;;;;;;31.60;24.10;;;;;;;;;;5094070;28;20215;-71
2022/12/08 14:07:02;;;;;;;165.07;85.73;;;;;;;;;;5094224;28;20169;-71
2022/12/08 14:09:33;;;;;;;77.43;48.80;;;;;;;;;;5075656;28;20205;-71
2022/12/08 14:12:04;;;;;;;133.60;87.80;;;;;;;;;;5094042;28;20250;-71
2022/12/08 14:14:33;;;;;;;46.93;34.60;;;;;;;;;;5075397;28;20315;-71
2022/12/08 14:17:04;;;;;;;54.20;42.33;;;;;;;;;;5075400;28;20314;-71
2022/12/08 14:19:32;;;;;;;32.17;27.60;;;;;;;;;;5093716;28;20330;-70
2022/12/08 14:21:59;;;;;;;49.47;37.10;;;;;;;;;;5093981;28;20464;-70
2022/12/08 14:24:26;;;;;;;64.10;47.30;;;;;;;;;;5094064;28;20193;-71
2022/12/08 14:26:53;;;;;;;32.70;27.73;;;;;;;;;;5075691;28;20201;-71
2022/12/08 14:29:37;;;;;;;42.63;36.30;;;;;;;;;;5075681;28;20189;-71
2022/12/08 14:32:04;;;;;;;37.03;28.23;;;;;;;;;;5095743;28;20181;-71
2022/12/08 14:34:39;;;;;;;38.47;32.90;;;;;;;;;;5098112;28;20197;-70